createdAt,value
2022-10-22T00:01:27.395Z,12.18
2022-10-22T00:03:55.834Z,12.12
2022-10-22T00:06:25.180Z,12.21
2022-10-22T00:08:52.981Z,12.06
2022-10-22T00:11:21.415Z,12.15
2022-10-22T00:13:49.749Z,12.15
2022-10-22T00:16:17.624Z,12.16
2022-10-22T00:18:45.239Z,12.21
2022-10-22T00:21:13.247Z,12.17
2022-10-22T00:23:43.564Z,12.10
2022-10-22T00:26:11.764Z,12.15
2022-10-22T00:28:40.076Z,12.14
2022-10-22T00:31:09.809Z,12.12
2022-10-22T00:33:37.408Z,12.05
2022-10-22T00:36:05.483Z,12.13
2022-10-22T00:38:33.783Z,12.15
2022-10-22T00:41:02.865Z,12.22
2022-10-22T00:43:30.595Z,12.23
2022-10-22T00:45:58.397Z,12.21
2022-10-22T00:48:29.123Z,12.25
2022-10-22T00:51:00.627Z,12.23
2022-10-22T00:53:33.214Z,12.24
2022-10-22T00:56:02.470Z,12.27
2022-10-22T00:58:34.480Z,12.32
2022-10-22T01:01:03.266Z,12.31
2022-10-22T01:03:30.849Z,12.33
2022-10-22T01:06:01.019Z,12.37
2022-10-22T01:08:47.939Z,12.35
2022-10-22T01:11:25.592Z,12.47
2022-10-22T01:14:03.204Z,12.48
2022-10-22T01:16:38.325Z,12.51
2022-10-22T01:19:31.386Z,12.49
2022-10-22T01:22:05.206Z,12.51
2022-10-22T01:24:41.142Z,12.53
2022-10-22T01:27:22.224Z,12.54
2022-10-22T01:29:54.197Z,12.53
2022-10-22T01:32:27.307Z,12.37
2022-10-22T01:35:02.758Z,12.47
2022-10-22T01:37:35.566Z,12.51
2022-10-22T01:40:04.954Z,12.53
2022-10-22T01:42:32.711Z,12.53
2022-10-22T01:45:02.018Z,12.51
2022-10-22T01:47:41.585Z,12.49
2022-10-22T01:50:31.594Z,12.58
2022-10-22T01:53:14.584Z,12.56
2022-10-22T01:55:49.808Z,12.56
2022-10-22T01:58:31.037Z,12.46
2022-10-22T02:01:07.741Z,12.60
2022-10-22T02:03:42.480Z,12.56
2022-10-22T02:06:15.607Z,12.53
2022-10-22T02:08:45.071Z,12.50
2022-10-22T02:11:14.193Z,12.48
2022-10-22T02:13:45.344Z,12.46
2022-10-22T02:16:18.363Z,12.32
2022-10-22T02:18:48.510Z,12.39
2022-10-22T02:21:17.055Z,12.41
2022-10-22T02:23:45.126Z,12.29
2022-10-22T02:26:20.388Z,12.42
2022-10-22T02:28:56.428Z,12.31
2022-10-22T02:31:28.507Z,12.19
2022-10-22T02:33:59.823Z,12.24
2022-10-22T02:36:28.445Z,12.23
2022-10-22T02:38:58.774Z,12.28
2022-10-22T02:41:31.341Z,12.32
2022-10-22T02:44:09.007Z,12.37
2022-10-22T02:46:38.813Z,12.41
2022-10-22T02:49:06.314Z,12.50
2022-10-22T02:51:33.799Z,12.48
2022-10-22T02:54:01.268Z,12.48
2022-10-22T02:56:28.698Z,12.45
2022-10-22T02:58:56.469Z,12.50
2022-10-22T03:01:24.369Z,12.53
2022-10-22T03:03:53.245Z,12.54
2022-10-22T03:06:20.741Z,12.63
2022-10-22T03:08:48.271Z,12.62
2022-10-22T03:11:15.778Z,12.61
2022-10-22T03:13:43.193Z,12.53
2022-10-22T03:16:10.696Z,12.51
2022-10-22T03:18:38.139Z,12.43
2022-10-22T03:21:12.154Z,12.41
2022-10-22T03:23:41.240Z,12.39
2022-10-22T03:26:09.818Z,12.33
2022-10-22T03:28:38.771Z,12.34
2022-10-22T03:31:06.470Z,12.37
2022-10-22T03:33:33.882Z,12.40
2022-10-22T03:36:01.933Z,12.44
2022-10-22T03:38:31.275Z,12.38
2022-10-22T03:40:59.494Z,12.35
2022-10-22T03:43:27.221Z,12.28
2022-10-22T03:45:54.732Z,12.22
2022-10-22T03:48:22.358Z,12.22
2022-10-22T03:50:50.535Z,12.17
2022-10-22T03:53:18.000Z,12.19
2022-10-22T03:55:47.593Z,12.17
2022-10-22T03:58:15.025Z,12.11
2022-10-22T04:00:42.481Z,12.08
2022-10-22T04:03:09.974Z,12.05
2022-10-22T04:05:37.388Z,11.96
2022-10-22T04:08:05.283Z,11.96
2022-10-22T04:10:32.909Z,11.92
2022-10-22T04:13:01.796Z,11.82
2022-10-22T04:15:29.262Z,11.83
2022-10-22T04:17:56.935Z,11.69
2022-10-22T04:20:24.355Z,11.77
2022-10-22T04:22:51.776Z,11.77
2022-10-22T04:25:19.190Z,11.71
2022-10-22T04:27:46.684Z,11.73
2022-10-22T04:30:16.024Z,11.73
2022-10-22T04:32:43.425Z,11.70
2022-10-22T04:35:10.855Z,11.62
2022-10-22T04:37:38.605Z,11.69
2022-10-22T04:40:07.561Z,11.68
2022-10-22T04:42:34.963Z,11.63
2022-10-22T04:45:02.390Z,11.46
2022-10-22T04:47:31.170Z,11.48
2022-10-22T04:49:58.572Z,11.41
2022-10-22T04:52:26.017Z,11.34
2022-10-22T04:54:53.433Z,11.30
2022-10-22T04:57:20.838Z,11.30
2022-10-22T04:59:48.252Z,11.26
2022-10-22T05:02:15.771Z,11.01
2022-10-22T05:04:45.994Z,11.19
2022-10-22T05:07:13.501Z,11.00
2022-10-22T05:09:40.905Z,11.02
2022-10-22T05:12:08.505Z,10.97
2022-10-22T05:14:35.902Z,10.95
2022-10-22T05:17:03.331Z,10.91
2022-10-22T05:19:33.193Z,10.92
2022-10-22T05:22:03.738Z,10.90
2022-10-22T05:24:32.716Z,10.87
2022-10-22T05:27:00.876Z,10.81
2022-10-22T05:29:28.479Z,10.72
2022-10-22T05:31:56.215Z,10.66
2022-10-22T05:34:23.796Z,10.74
2022-10-22T05:36:51.282Z,10.81
2022-10-22T05:39:20.088Z,10.80
2022-10-22T05:41:47.518Z,10.82
2022-10-22T05:44:14.987Z,10.80
2022-10-22T05:46:43.465Z,10.59
2022-10-22T05:49:14.009Z,10.69
2022-10-22T05:51:41.605Z,10.76
2022-10-22T05:54:10.912Z,10.67
2022-10-22T05:56:39.685Z,10.70
2022-10-22T05:59:07.110Z,10.69
2022-10-22T06:01:36.111Z,10.67
2022-10-22T06:04:06.614Z,10.64
2022-10-22T06:06:35.725Z,10.60
2022-10-22T06:09:06.204Z,10.66
2022-10-22T06:11:35.176Z,10.67
2022-10-22T06:14:04.775Z,10.63
2022-10-22T06:16:33.315Z,10.67
2022-10-22T06:19:01.767Z,10.68
2022-10-22T06:21:29.947Z,10.66
2022-10-22T06:23:58.051Z,10.70
2022-10-22T06:26:25.716Z,10.64
2022-10-22T06:28:53.310Z,10.75
2022-10-22T06:31:22.097Z,10.80
2022-10-22T06:33:49.529Z,10.76
2022-10-22T06:36:19.498Z,10.76
2022-10-22T06:38:47.063Z,10.75
2022-10-22T06:41:16.606Z,10.81
2022-10-22T06:43:46.736Z,10.79
2022-10-22T06:46:19.857Z,10.74
2022-10-22T06:48:53.191Z,10.76
2022-10-22T06:51:21.006Z,10.77
2022-10-22T06:53:48.496Z,10.84
2022-10-22T06:56:18.691Z,10.90
2022-10-22T06:58:48.375Z,10.92
2022-10-22T07:01:18.227Z,10.81
2022-10-22T07:03:45.765Z,10.72
2022-10-22T07:06:15.580Z,10.91
2022-10-22T07:08:43.609Z,11.14
2022-10-22T07:11:13.307Z,11.12
2022-10-22T07:13:41.159Z,11.12
2022-10-22T07:16:09.895Z,11.13
2022-10-22T07:18:38.168Z,11.19
2022-10-22T07:21:06.488Z,11.20
2022-10-22T07:23:35.308Z,11.34
2022-10-22T07:26:03.414Z,11.20
2022-10-22T07:28:32.470Z,11.45
2022-10-22T07:30:59.928Z,11.42
2022-10-22T07:33:28.304Z,11.59
2022-10-22T07:36:00.369Z,11.55
2022-10-22T07:38:28.286Z,11.65
2022-10-22T07:40:57.084Z,11.71
2022-10-22T07:43:25.041Z,11.60
2022-10-22T07:45:52.664Z,11.68
2022-10-22T07:48:20.078Z,11.71
2022-10-22T07:50:47.509Z,11.76
2022-10-22T07:53:14.943Z,11.89
2022-10-22T07:55:42.431Z,11.91
2022-10-22T07:58:11.213Z,12.04
2022-10-22T08:00:38.622Z,12.15
2022-10-22T08:03:06.040Z,12.35
2022-10-22T08:05:33.483Z,12.44
2022-10-22T08:08:01.074Z,12.42
2022-10-22T08:10:28.479Z,12.33
2022-10-22T08:12:56.144Z,12.37
2022-10-22T08:15:25.534Z,12.37
2022-10-22T08:17:53.030Z,12.41
2022-10-22T08:20:20.739Z,12.48
2022-10-22T08:22:48.406Z,12.50
2022-10-22T08:25:17.923Z,12.54
2022-10-22T08:27:46.121Z,12.60
2022-10-22T08:30:14.590Z,12.60
2022-10-22T08:32:43.684Z,12.66
2022-10-22T08:35:14.084Z,12.67
2022-10-22T08:37:44.451Z,12.67
2022-10-22T08:40:20.208Z,12.73
2022-10-22T08:43:29.363Z,12.62
2022-10-22T08:46:08.518Z,12.63
2022-10-22T08:48:45.176Z,12.59
2022-10-22T08:51:15.902Z,12.64
2022-10-22T08:53:54.473Z,12.60
2022-10-22T08:56:24.683Z,12.59
2022-10-22T08:58:56.779Z,12.64
2022-10-22T09:01:33.891Z,12.66
2022-10-22T09:04:10.197Z,12.67
2022-10-22T09:06:41.085Z,12.73
2022-10-22T09:09:13.407Z,12.82
2022-10-22T09:11:44.260Z,12.87
2022-10-22T09:17:06.297Z,13.00
2022-10-22T09:19:43.807Z,13.03
2022-10-22T09:22:23.585Z,13.02
2022-10-22T09:24:57.937Z,13.05
2022-10-22T09:27:29.862Z,13.05
2022-10-22T09:29:57.626Z,13.11
2022-10-22T09:32:26.313Z,13.13
2022-10-22T09:34:57.936Z,13.12
2022-10-22T09:37:28.293Z,13.19
2022-10-22T09:39:58.838Z,13.19
2022-10-22T09:42:26.553Z,13.05
2022-10-22T09:44:56.039Z,13.16
2022-10-22T09:47:43.339Z,13.20
2022-10-22T09:50:30.115Z,13.35
2022-10-22T09:53:05.117Z,13.33
2022-10-22T09:55:33.321Z,13.44
2022-10-22T09:58:01.602Z,13.42
2022-10-22T10:00:30.593Z,13.40
2022-10-22T10:02:59.694Z,13.09
2022-10-22T10:05:30.913Z,13.38
2022-10-22T10:07:59.312Z,13.43
2022-10-22T10:10:34.999Z,13.37
2022-10-22T10:13:15.763Z,13.43
2022-10-22T10:15:52.935Z,13.39
2022-10-22T10:18:33.264Z,13.43
2022-10-22T10:21:10.510Z,13.44
2022-10-22T10:23:46.021Z,13.44
2022-10-22T10:26:21.159Z,13.42
2022-10-22T10:29:01.073Z,13.38
2022-10-22T10:31:40.843Z,13.24
2022-10-22T10:34:21.501Z,13.15
2022-10-22T10:36:57.781Z,13.08
2022-10-22T10:39:31.047Z,13.14
2022-10-22T10:42:07.334Z,13.08
2022-10-22T10:44:53.043Z,13.21
2022-10-22T10:47:38.775Z,13.41
2022-10-22T10:50:21.101Z,13.42
2022-10-22T10:53:02.220Z,13.49
2022-10-22T10:55:33.147Z,13.56
2022-10-22T10:58:12.312Z,13.59
2022-10-22T11:00:48.251Z,13.62
2022-10-22T11:03:41.416Z,13.66
2022-10-22T11:06:12.547Z,13.68
2022-10-22T11:08:45.967Z,13.81
2022-10-22T11:11:19.410Z,13.83
2022-10-22T11:13:53.104Z,14.02
2022-10-22T11:16:24.313Z,13.95
2022-10-22T11:18:57.585Z,13.74
2022-10-22T11:21:30.475Z,13.82
2022-10-22T11:24:10.257Z,13.90
2022-10-22T11:26:43.879Z,13.98
2022-10-22T11:29:16.151Z,14.07
2022-10-22T11:31:44.697Z,14.16
2022-10-22T11:34:33.133Z,14.27
2022-10-22T11:37:02.519Z,14.19
2022-10-22T11:39:36.009Z,14.11
2022-10-22T11:42:06.253Z,14.06
2022-10-22T11:44:47.207Z,13.96
2022-10-22T11:47:20.778Z,13.99
2022-10-22T11:49:58.662Z,13.95
2022-10-22T11:52:38.023Z,13.93
2022-10-22T11:55:31.368Z,13.89
2022-10-22T11:58:01.364Z,13.94
2022-10-22T12:00:41.554Z,14.10
2022-10-22T12:03:18.007Z,14.24
2022-10-22T12:05:46.444Z,14.23
2022-10-22T12:08:21.076Z,14.41
2022-10-22T12:11:01.245Z,14.47
2022-10-22T12:13:31.304Z,14.59
2022-10-22T12:16:02.387Z,14.77
2022-10-22T12:18:36.083Z,14.85
2022-10-22T12:21:03.570Z,14.93
2022-10-22T12:23:32.931Z,14.88
2022-10-22T12:26:02.345Z,14.93
2022-10-22T12:28:29.735Z,15.07
2022-10-22T12:31:00.248Z,15.09
2022-10-22T12:33:28.115Z,15.14
2022-10-22T12:35:57.556Z,15.10
2022-10-22T12:38:26.409Z,14.99
2022-10-22T12:40:56.892Z,14.88
2022-10-22T12:43:28.930Z,14.89
2022-10-22T12:45:58.439Z,14.85
2022-10-22T12:48:29.143Z,14.75
2022-10-22T12:51:00.105Z,14.64
2022-10-22T12:53:31.533Z,14.57
2022-10-22T12:56:03.392Z,14.61
2022-10-22T12:58:39.120Z,14.67
2022-10-22T13:01:07.071Z,14.68
2022-10-22T13:03:41.302Z,14.83
2022-10-22T13:06:23.770Z,15.00
2022-10-22T13:09:08.023Z,15.02
2022-10-22T13:11:41.294Z,15.00
2022-10-22T13:14:21.191Z,15.11
2022-10-22T13:17:04.620Z,15.13
2022-10-22T13:19:41.677Z,15.09
2022-10-22T13:22:39.941Z,15.25
2022-10-22T13:25:29.089Z,15.20
2022-10-22T13:27:58.665Z,15.35
2022-10-22T13:30:30.094Z,15.64
2022-10-22T13:32:59.472Z,15.77
2022-10-22T13:35:28.940Z,15.94
2022-10-22T13:37:56.397Z,15.77
2022-10-22T13:40:23.827Z,15.66
2022-10-22T13:42:51.381Z,15.69
2022-10-22T13:45:19.184Z,15.74
2022-10-22T13:47:52.893Z,15.92
2022-10-22T13:50:21.467Z,15.99
2022-10-22T13:52:51.609Z,15.94
2022-10-22T13:55:22.601Z,16.16
2022-10-22T13:57:50.453Z,16.28
2022-10-22T14:00:20.879Z,16.14
2022-10-22T14:02:52.946Z,16.00
2022-10-22T14:05:20.788Z,15.98
2022-10-22T14:07:48.404Z,16.22
2022-10-22T14:10:19.852Z,16.44
2022-10-22T14:12:52.360Z,16.81
2022-10-22T14:15:24.159Z,17.41
2022-10-22T14:17:57.223Z,17.57
2022-10-22T14:20:27.626Z,17.90
2022-10-22T14:22:55.416Z,17.91
2022-10-22T14:25:25.367Z,17.77
2022-10-22T14:27:53.394Z,18.04
2022-10-22T14:30:24.643Z,17.61
2022-10-22T14:32:53.844Z,16.99
2022-10-22T14:35:23.429Z,16.53
2022-10-22T14:37:51.283Z,17.05
2022-10-22T14:40:20.705Z,17.27
2022-10-22T14:42:49.639Z,17.48
2022-10-22T14:45:19.225Z,17.72
2022-10-22T14:47:46.693Z,17.82
2022-10-22T14:50:15.928Z,17.49
2022-10-22T14:52:43.931Z,16.81
2022-10-22T14:55:12.649Z,16.56
2022-10-22T14:57:41.065Z,16.81
2022-10-22T15:00:14.904Z,16.42
2022-10-22T15:02:42.637Z,16.16
2022-10-22T15:05:10.561Z,16.10
2022-10-22T15:07:39.779Z,16.03
2022-10-22T15:10:09.222Z,16.47
2022-10-22T15:12:36.954Z,16.55
2022-10-22T15:15:05.374Z,16.58
2022-10-22T15:17:32.893Z,16.31
2022-10-22T15:20:03.882Z,16.14
2022-10-22T15:22:34.936Z,15.85
2022-10-22T15:25:04.907Z,15.63
2022-10-22T15:27:32.345Z,15.49
2022-10-22T15:29:59.855Z,15.32
2022-10-22T15:32:29.098Z,15.26
2022-10-22T15:34:57.185Z,14.98
2022-10-22T15:37:24.617Z,14.97
2022-10-22T15:39:52.024Z,14.82
2022-10-22T15:42:20.888Z,14.86
2022-10-22T15:44:48.296Z,14.84
2022-10-22T15:47:15.825Z,14.77
2022-10-22T15:49:43.231Z,14.75
2022-10-22T15:52:10.687Z,14.72
2022-10-22T15:54:38.101Z,14.61
2022-10-22T15:57:08.505Z,14.54
2022-10-22T15:59:37.717Z,14.47
2022-10-22T16:02:07.138Z,14.41
2022-10-22T16:04:34.555Z,14.39
2022-10-22T16:07:01.991Z,14.29
2022-10-22T16:09:29.480Z,14.17
2022-10-22T16:11:57.341Z,14.10
2022-10-22T16:14:24.983Z,14.02
2022-10-22T16:16:55.651Z,13.86
2022-10-22T16:19:24.762Z,13.82
2022-10-22T16:21:54.861Z,13.73
2022-10-22T16:24:22.935Z,13.56
2022-10-22T16:26:50.538Z,13.36
2022-10-22T16:29:17.975Z,13.25
2022-10-22T16:31:45.441Z,13.14
2022-10-22T16:34:14.398Z,13.24
2022-10-22T16:36:41.871Z,13.19
2022-10-22T16:39:09.349Z,13.12
2022-10-22T16:41:36.900Z,13.04
2022-10-22T16:44:06.394Z,12.86
2022-10-22T16:46:36.571Z,12.60
2022-10-22T16:49:03.988Z,12.47
2022-10-22T16:51:32.761Z,12.39
2022-10-22T16:54:00.178Z,12.32
2022-10-22T16:56:27.996Z,12.33
2022-10-22T16:58:56.948Z,12.36
2022-10-22T17:01:26.799Z,12.24
2022-10-22T17:03:54.910Z,12.16
2022-10-22T17:06:23.183Z,11.99
2022-10-22T17:08:52.127Z,11.89
2022-10-22T17:11:21.908Z,11.80
2022-10-22T17:13:52.496Z,11.95
2022-10-22T17:16:22.040Z,12.06
2022-10-22T17:18:49.685Z,12.07
2022-10-22T17:21:18.765Z,12.06
2022-10-22T17:23:46.877Z,12.05
2022-10-22T17:26:18.277Z,11.99
2022-10-22T17:28:45.958Z,12.00
2022-10-22T17:31:18.149Z,11.95
2022-10-22T17:33:45.840Z,11.91
2022-10-22T17:36:14.175Z,11.87
2022-10-22T17:38:43.394Z,11.84
2022-10-22T17:41:17.334Z,11.82
2022-10-22T17:46:20.973Z,11.73
2022-10-22T17:48:50.809Z,11.72
2022-10-22T17:51:19.131Z,11.72
2022-10-22T17:53:47.300Z,11.70
2022-10-22T17:56:16.983Z,11.50
2022-10-22T17:58:45.769Z,11.68
2022-10-22T18:01:21.923Z,11.66
2022-10-22T18:03:50.318Z,11.63
2022-10-22T18:06:18.207Z,11.56
2022-10-22T18:08:45.715Z,11.54
2022-10-22T18:11:15.196Z,11.55
2022-10-22T18:13:42.694Z,11.55
2022-10-22T18:16:11.806Z,11.55
2022-10-22T18:18:39.262Z,11.48
2022-10-22T18:21:07.019Z,11.45
2022-10-22T18:23:34.477Z,11.35
2022-10-22T18:26:05.421Z,11.40
2022-10-22T18:28:32.877Z,11.35
2022-10-22T18:31:00.331Z,11.36
2022-10-22T18:33:29.084Z,11.38
2022-10-22T18:35:56.801Z,11.36
2022-10-22T18:38:24.510Z,11.37
2022-10-22T18:40:51.940Z,11.35
2022-10-22T18:43:19.556Z,11.36
2022-10-22T18:45:49.190Z,11.32
2022-10-22T18:48:19.051Z,11.27
2022-10-22T18:50:48.191Z,11.27
2022-10-22T18:53:17.288Z,11.25
2022-10-22T18:55:45.467Z,11.24
2022-10-22T18:58:12.923Z,11.16
2022-10-22T19:00:40.403Z,11.11
2022-10-22T19:03:07.855Z,11.09
2022-10-22T19:05:35.288Z,11.06
2022-10-22T19:08:04.804Z,11.02
2022-10-22T19:10:35.073Z,11.02
2022-10-22T19:13:02.496Z,11.01
2022-10-22T19:15:29.891Z,11.00
2022-10-22T19:17:57.494Z,10.94
2022-10-22T19:20:24.887Z,10.96
2022-10-22T19:22:53.265Z,11.00
2022-10-22T19:25:22.277Z,11.09
2022-10-22T19:27:49.779Z,11.13
2022-10-22T19:30:19.044Z,11.12
2022-10-22T19:32:47.112Z,11.13
2022-10-22T19:35:14.522Z,11.13
2022-10-22T19:37:46.184Z,11.13
2022-10-22T19:40:16.033Z,11.10
2022-10-22T19:42:46.940Z,11.13
2022-10-22T19:45:14.392Z,11.09
2022-10-22T19:47:42.050Z,11.07
2022-10-22T19:50:09.686Z,11.04
2022-10-22T19:52:37.375Z,11.01
2022-10-22T19:55:05.299Z,11.01
2022-10-22T19:57:32.738Z,11.02
2022-10-22T20:00:01.574Z,11.00
2022-10-22T20:02:28.995Z,11.04
2022-10-22T20:04:56.406Z,11.03
2022-10-22T20:07:23.828Z,11.06
2022-10-22T20:09:51.267Z,11.08
2022-10-22T20:12:18.676Z,11.05
2022-10-22T20:14:46.086Z,10.99
2022-10-22T20:17:14.881Z,11.01
2022-10-22T20:19:42.368Z,11.01
2022-10-22T20:22:12.555Z,11.08
2022-10-22T20:24:42.365Z,11.06
2022-10-22T20:27:09.837Z,11.07
2022-10-22T20:29:37.276Z,11.02
2022-10-22T20:32:06.757Z,11.09
2022-10-22T20:34:38.028Z,11.07
2022-10-22T20:37:05.456Z,11.07
2022-10-22T20:39:32.880Z,11.04
2022-10-22T20:42:00.307Z,11.06
2022-10-22T20:44:27.721Z,11.08
2022-10-22T20:46:55.171Z,10.98
2022-10-22T20:49:22.623Z,11.03
2022-10-22T20:51:51.520Z,11.05
2022-10-22T20:54:19.071Z,11.03
2022-10-22T20:56:47.784Z,11.02
2022-10-22T20:59:15.849Z,11.03
2022-10-22T21:01:47.276Z,11.02
2022-10-22T21:04:15.289Z,11.01
2022-10-22T21:06:43.281Z,10.83
2022-10-22T21:09:13.331Z,10.83
2022-10-22T21:11:42.159Z,10.76
2022-10-22T21:14:11.649Z,10.74
2022-10-22T21:16:41.575Z,10.72
2022-10-22T21:19:09.029Z,10.69
2022-10-22T21:21:36.566Z,10.73
2022-10-22T21:24:04.336Z,10.70
2022-10-22T21:26:33.148Z,10.69
2022-10-22T21:29:00.570Z,10.69
2022-10-22T21:31:27.991Z,10.69
2022-10-22T21:33:55.530Z,10.70
2022-10-22T21:36:23.771Z,10.71
2022-10-22T21:38:51.940Z,10.67
2022-10-22T21:41:21.958Z,10.65
2022-10-22T21:43:51.844Z,10.64
2022-10-22T21:46:21.006Z,10.67
2022-10-22T21:48:48.935Z,10.66
2022-10-22T21:51:18.356Z,10.56
2022-10-22T21:53:46.872Z,10.36
2022-10-22T21:56:16.217Z,10.50
2022-10-22T21:58:44.006Z,10.53
2022-10-22T22:01:14.402Z,10.55
2022-10-22T22:03:42.511Z,10.48
2022-10-22T22:06:10.486Z,10.55
2022-10-22T22:08:38.200Z,10.49
2022-10-22T22:11:07.577Z,10.39
2022-10-22T22:13:35.319Z,10.40
2022-10-22T22:16:04.418Z,10.39
2022-10-22T22:18:33.938Z,10.36
2022-10-22T22:21:05.398Z,10.46
2022-10-22T22:23:33.106Z,10.41
2022-10-22T22:26:01.592Z,10.40
2022-10-22T22:28:30.765Z,10.47
2022-10-22T22:30:58.670Z,10.54
2022-10-22T22:33:26.578Z,10.51
2022-10-22T22:35:59.084Z,10.46
2022-10-22T22:38:26.555Z,10.38
2022-10-22T22:40:54.019Z,10.42
2022-10-22T22:43:21.439Z,10.39
2022-10-22T22:45:48.860Z,10.42
2022-10-22T22:48:16.280Z,10.42
2022-10-22T22:50:43.681Z,10.44
2022-10-22T22:53:12.434Z,10.49
2022-10-22T22:55:39.849Z,10.56
2022-10-22T22:58:07.263Z,10.59
2022-10-22T23:00:34.899Z,10.60
2022-10-22T23:03:02.377Z,10.61
2022-10-22T23:05:29.781Z,10.54
2022-10-22T23:07:57.552Z,10.62
2022-10-22T23:10:26.381Z,10.63
2022-10-22T23:12:53.829Z,10.66
2022-10-22T23:15:21.235Z,10.55
2022-10-22T23:17:48.624Z,10.66
2022-10-22T23:20:16.104Z,10.65
2022-10-22T23:22:43.748Z,10.61
2022-10-22T23:25:11.434Z,10.60
2022-10-22T23:27:40.377Z,10.62
2022-10-22T23:30:09.655Z,10.62
2022-10-22T23:32:37.189Z,10.63
2022-10-22T23:35:04.952Z,10.67
2022-10-22T23:37:32.378Z,10.67
2022-10-22T23:39:59.795Z,10.66
2022-10-22T23:42:27.306Z,10.57
2022-10-22T23:44:56.200Z,10.64
2022-10-22T23:47:23.655Z,10.64
2022-10-22T23:49:51.073Z,10.60
2022-10-22T23:52:18.517Z,10.69
2022-10-22T23:54:45.920Z,10.74
2022-10-22T23:57:13.325Z,10.78
2022-10-22T23:59:40.760Z,10.84
